createdAt,value
2023-04-11T00:00:54.019Z,52.4234
2023-04-11T00:01:55.684Z,52.2304
2023-04-11T00:02:57.621Z,52.1591
2023-04-11T00:03:59.146Z,52.0210
2023-04-11T00:05:00.739Z,51.8099
2023-04-11T00:06:02.279Z,51.7711
2023-04-11T00:07:03.902Z,51.4600
2023-04-11T00:08:05.642Z,51.2419
2023-04-11T00:09:07.216Z,51.1477
2023-04-11T00:10:08.871Z,50.9775
2023-04-11T00:11:10.649Z,50.7918
2023-04-11T00:12:12.180Z,50.6498
2023-04-11T00:13:13.935Z,50.4673
2023-04-11T00:14:16.097Z,50.3520
2023-04-11T00:15:17.141Z,50.2099
2023-04-11T00:16:18.851Z,50.4061
2023-04-11T00:17:20.471Z,54.4736
2023-04-11T00:18:22.165Z,55.8863
2023-04-11T00:19:23.770Z,55.6695
2023-04-11T00:20:25.449Z,55.0466
2023-04-11T00:21:27.126Z,54.3868
2023-04-11T00:22:28.744Z,53.7161
2023-04-11T00:23:31.292Z,53.4438
2023-04-11T00:24:32.073Z,53.2626
2023-04-11T00:25:33.796Z,53.1061
2023-04-11T00:26:35.370Z,52.9508
2023-04-11T00:27:37.019Z,52.6658
2023-04-11T00:28:38.766Z,52.4443
2023-04-11T00:29:40.417Z,52.1603
2023-04-11T00:30:42.031Z,51.9170
2023-04-11T00:31:43.742Z,51.6593
2023-04-11T00:32:45.366Z,51.5774
2023-04-11T00:33:47.058Z,51.6400
2023-04-11T00:34:48.714Z,51.5302
2023-04-11T00:35:50.364Z,51.2914
2023-04-11T00:36:52.034Z,51.1120
2023-04-11T00:37:53.576Z,50.9214
2023-04-11T00:38:56.001Z,50.7277
2023-04-11T00:39:57.013Z,50.5156
2023-04-11T00:40:58.625Z,50.3714
2023-04-11T00:42:00.321Z,50.3790
2023-04-11T00:43:02.045Z,50.2089
2023-04-11T00:44:03.638Z,49.9623
2023-04-11T00:45:05.264Z,49.8683
2023-04-11T00:46:07.030Z,50.5122
2023-04-11T00:47:08.675Z,54.5172
2023-04-11T00:48:10.227Z,55.3910
2023-04-11T00:49:11.904Z,55.2428
2023-04-11T00:50:13.558Z,54.7114
2023-04-11T00:51:15.291Z,54.1247
2023-04-11T00:52:16.857Z,53.4082
2023-04-11T00:53:18.548Z,53.2242
2023-04-11T00:54:20.213Z,53.0445
2023-04-11T00:55:21.800Z,52.8042
2023-04-11T00:56:23.432Z,52.6793
2023-04-11T00:57:25.155Z,52.4835
2023-04-11T00:58:26.790Z,52.2001
2023-04-11T00:59:28.395Z,51.9463
2023-04-11T01:00:30.176Z,51.8428
2023-04-11T01:01:32.801Z,51.5532
2023-04-11T01:02:33.446Z,51.3596
2023-04-11T01:03:35.160Z,51.1986
2023-04-11T01:04:36.770Z,51.2348
2023-04-11T01:05:38.401Z,51.0840
2023-04-11T01:06:40.032Z,51.1071
2023-04-11T01:07:41.678Z,50.8606
2023-04-11T01:08:43.304Z,50.6511
2023-04-11T01:09:45.006Z,50.4615
2023-04-11T01:10:46.634Z,50.3012
2023-04-11T01:11:48.266Z,50.2063
2023-04-11T01:12:49.906Z,50.1225
2023-04-11T01:13:51.592Z,50.0029
2023-04-11T01:14:53.267Z,50.1077
2023-04-11T01:15:54.927Z,50.2234
2023-04-11T01:16:56.699Z,49.9877
2023-04-11T01:17:58.258Z,49.8028
2023-04-11T01:18:59.901Z,49.6404
2023-04-11T01:20:01.766Z,49.5747
2023-04-11T01:21:03.177Z,49.4510
2023-04-11T01:22:04.755Z,49.4254
2023-04-11T01:23:05.306Z,49.5000
2023-04-11T01:24:08.139Z,49.5781
2023-04-11T01:25:10.247Z,49.4740
2023-04-11T01:26:11.518Z,50.9635
2023-04-11T01:27:13.170Z,54.2586
2023-04-11T01:28:14.891Z,54.8193
2023-04-11T01:29:16.409Z,54.6153
2023-04-11T01:30:18.237Z,54.1191
2023-04-11T01:31:19.728Z,53.5315
2023-04-11T01:32:21.436Z,52.9952
2023-04-11T01:33:23.063Z,52.8972
2023-04-11T01:34:24.755Z,52.7809
2023-04-11T01:35:27.212Z,52.5920
2023-04-11T01:36:28.023Z,52.6141
2023-04-11T01:37:29.590Z,52.4794
2023-04-11T01:38:31.290Z,52.4501
2023-04-11T01:39:33.011Z,52.2923
2023-04-11T01:40:34.649Z,52.0608
2023-04-11T01:41:36.251Z,51.9235
2023-04-11T01:42:38.001Z,51.6476
2023-04-11T01:43:39.529Z,51.4879
2023-04-11T01:44:41.200Z,51.4015
2023-04-11T01:45:42.881Z,51.2240
2023-04-11T01:46:44.561Z,51.1489
2023-04-11T01:47:47.046Z,51.0969
2023-04-11T01:48:47.945Z,51.0615
2023-04-11T01:49:49.485Z,51.1180
2023-04-11T01:50:51.152Z,50.9337
2023-04-11T01:51:52.795Z,50.7080
2023-04-11T01:52:54.524Z,50.7598
2023-04-11T01:53:56.123Z,50.7344
2023-04-11T01:54:58.291Z,50.6766
2023-04-11T01:55:59.416Z,50.6790
2023-04-11T01:57:01.016Z,50.4564
2023-04-11T01:58:02.737Z,50.2539
2023-04-11T01:59:04.393Z,50.0377
2023-04-11T02:00:06.706Z,49.9407
2023-04-11T02:01:07.859Z,49.8588
2023-04-11T02:02:09.471Z,49.8446
2023-04-11T02:03:11.121Z,49.8221
2023-04-11T02:04:12.825Z,50.1447
2023-04-11T02:05:14.344Z,52.8795
2023-04-11T02:06:16.598Z,54.2463
2023-04-11T02:07:17.658Z,54.3524
2023-04-11T02:08:19.218Z,54.0012
2023-04-11T02:09:20.892Z,53.5879
2023-04-11T02:10:22.533Z,53.0514
2023-04-11T02:11:24.322Z,52.8122
2023-04-11T02:12:25.870Z,52.8442
2023-04-11T02:13:27.416Z,52.7469
2023-04-11T02:14:29.133Z,52.7047
2023-04-11T02:15:30.934Z,52.5981
2023-04-11T02:16:32.536Z,52.4786
2023-04-11T02:17:34.226Z,52.4946
2023-04-11T02:18:35.728Z,52.2869
2023-04-11T02:19:37.457Z,52.0797
2023-04-11T02:20:39.140Z,51.9050
2023-04-11T02:21:40.790Z,51.7039
2023-04-11T02:22:42.458Z,51.4274
2023-04-11T02:23:44.147Z,51.3241
2023-04-11T02:24:45.741Z,51.3137
2023-04-11T02:25:48.224Z,51.1965
2023-04-11T02:26:49.148Z,51.0050
2023-04-11T02:27:50.803Z,50.9208
2023-04-11T02:28:52.462Z,50.8485
2023-04-11T02:29:54.031Z,50.7467
2023-04-11T02:30:55.732Z,50.6323
2023-04-11T02:31:57.374Z,50.5154
2023-04-11T02:32:59.028Z,50.3893
2023-04-11T02:34:00.635Z,50.3587
2023-04-11T02:35:02.320Z,50.3763
2023-04-11T02:36:04.110Z,50.2899
2023-04-11T02:37:05.747Z,51.7160
2023-04-11T02:38:07.189Z,54.6605
2023-04-11T02:39:08.912Z,55.3429
2023-04-11T02:40:10.495Z,55.2998
2023-04-11T02:41:12.190Z,54.8915
2023-04-11T02:42:14.583Z,54.4121
2023-04-11T02:43:15.601Z,53.8861
2023-04-11T02:44:17.207Z,53.7879
2023-04-11T02:45:18.881Z,53.6861
2023-04-11T02:46:20.443Z,53.5626
2023-04-11T02:47:22.362Z,53.5350
2023-04-11T02:48:23.861Z,53.4433
2023-04-11T02:49:25.428Z,53.4349
2023-04-11T02:50:27.124Z,53.2154
2023-04-11T02:51:28.816Z,52.9207
2023-04-11T02:52:30.444Z,52.7337
2023-04-11T02:53:32.075Z,52.6843
2023-04-11T02:54:33.806Z,52.5840
2023-04-11T02:55:35.422Z,52.0044
2023-04-11T02:56:37.019Z,50.7852
2023-04-11T02:57:38.648Z,49.7205
2023-04-11T02:58:40.324Z,48.9162
2023-04-11T02:59:41.942Z,48.2141
2023-04-11T03:00:43.644Z,47.7599
2023-04-11T03:01:45.351Z,47.5956
2023-04-11T03:02:46.933Z,47.7004
2023-04-11T03:03:48.595Z,47.8376
2023-04-11T03:04:50.207Z,48.0246
2023-04-11T03:05:51.785Z,48.2410
2023-04-11T03:06:53.438Z,48.4414
2023-04-11T03:07:55.237Z,48.5070
2023-04-11T03:08:57.489Z,48.4648
2023-04-11T03:09:58.526Z,48.4609
2023-04-11T03:11:00.082Z,48.3789
2023-04-11T03:12:01.726Z,48.5069
2023-04-11T03:13:04.312Z,48.6080
2023-04-11T03:14:05.070Z,48.5720
2023-04-11T03:15:06.738Z,48.4667
2023-04-11T03:16:08.435Z,48.4073
2023-04-11T03:17:09.986Z,48.4138
2023-04-11T03:18:11.698Z,48.4159
2023-04-11T03:19:13.423Z,48.5173
2023-04-11T03:20:14.993Z,48.4809
2023-04-11T03:21:16.620Z,48.3887
2023-04-11T03:22:18.256Z,48.3300
2023-04-11T03:23:19.963Z,48.1883
2023-04-11T03:24:21.591Z,48.1601
2023-04-11T03:25:23.335Z,48.1500
2023-04-11T03:26:24.942Z,48.2281
2023-04-11T03:27:26.547Z,48.4578
2023-04-11T03:28:29.236Z,48.5126
2023-04-11T03:29:29.905Z,48.5660
2023-04-11T03:30:31.512Z,48.5623
2023-04-11T03:31:33.195Z,48.5110
2023-04-11T03:32:34.848Z,48.4898
2023-04-11T03:33:37.387Z,48.4982
2023-04-11T03:34:38.198Z,48.6617
2023-04-11T03:35:39.887Z,48.7610
2023-04-11T03:36:41.491Z,48.8171
2023-04-11T03:37:43.076Z,48.6799
2023-04-11T03:38:44.699Z,48.6233
2023-04-11T03:39:46.477Z,48.6458
2023-04-11T03:40:48.070Z,48.7124
2023-04-11T03:41:49.738Z,48.7153
2023-04-11T03:42:51.368Z,48.7536
2023-04-11T03:43:53.013Z,48.8861
2023-04-11T03:44:54.740Z,48.9359
2023-04-11T03:45:56.380Z,48.9497
2023-04-11T03:46:58.067Z,48.9396
2023-04-11T03:47:59.660Z,48.9041
2023-04-11T03:49:01.270Z,48.9123
2023-04-11T03:50:03.291Z,48.9243
2023-04-11T03:51:04.602Z,48.9038
2023-04-11T03:52:06.216Z,49.0579
2023-04-11T03:53:07.854Z,49.3245
2023-04-11T03:54:09.514Z,49.5458
2023-04-11T03:55:11.186Z,49.6059
2023-04-11T03:56:12.822Z,49.5614
2023-04-11T03:57:14.587Z,49.4605
2023-04-11T03:58:16.168Z,49.4749
2023-04-11T03:59:17.816Z,49.5439
2023-04-11T04:00:20.139Z,49.6015
2023-04-11T04:01:21.141Z,49.7447
2023-04-11T04:02:22.957Z,49.8780
2023-04-11T04:03:24.680Z,50.0046
2023-04-11T04:04:26.262Z,50.0069
2023-04-11T04:05:27.752Z,49.9778
2023-04-11T04:06:29.370Z,50.0002
2023-04-11T04:07:31.077Z,50.0696
2023-04-11T04:08:32.690Z,50.1629
2023-04-11T04:09:34.431Z,50.2182
2023-04-11T04:10:35.973Z,50.4375
2023-04-11T04:11:37.665Z,50.4952
2023-04-11T04:12:39.362Z,50.6405
2023-04-11T04:13:40.979Z,50.6182
2023-04-11T04:14:42.662Z,50.6435
2023-04-11T04:15:44.300Z,50.6504
2023-04-11T04:16:46.060Z,50.7155
2023-04-11T04:17:47.618Z,50.8428
2023-04-11T04:18:49.249Z,51.0318
2023-04-11T04:19:50.903Z,51.1056
2023-04-11T04:20:52.533Z,51.2260
2023-04-11T04:21:54.210Z,51.1720
2023-04-11T04:22:55.830Z,51.1919
2023-04-11T04:23:57.622Z,51.3069
2023-04-11T04:24:59.445Z,51.4564
2023-04-11T04:26:00.831Z,51.5126
2023-04-11T04:27:02.528Z,51.5056
2023-04-11T04:28:04.081Z,51.5093
2023-04-11T04:29:05.756Z,51.5099
2023-04-11T04:30:07.462Z,51.6005
2023-04-11T04:31:09.078Z,51.7759
2023-04-11T04:32:10.883Z,51.9016
2023-04-11T04:33:12.535Z,52.0501
2023-04-11T04:34:14.007Z,52.2333
2023-04-11T04:35:15.672Z,52.3592
2023-04-11T04:36:17.225Z,52.3906
2023-04-11T04:37:18.940Z,52.4108
2023-04-11T04:38:20.556Z,52.3662
2023-04-11T04:39:22.208Z,52.3930
2023-04-11T04:40:23.913Z,52.4896
2023-04-11T04:41:25.517Z,52.7473
2023-04-11T04:42:27.172Z,52.8836
2023-04-11T04:43:28.925Z,52.9546
2023-04-11T04:44:30.529Z,53.0657
2023-04-11T04:45:32.374Z,53.2169
2023-04-11T04:46:33.828Z,53.3214
2023-04-11T04:47:35.529Z,53.3945
2023-04-11T04:48:37.124Z,53.4132
2023-04-11T04:49:38.762Z,53.5378
2023-04-11T04:50:40.474Z,53.6152
2023-04-11T04:51:42.072Z,53.6562
2023-04-11T04:52:43.666Z,53.7764
2023-04-11T04:53:45.430Z,53.8598
2023-04-11T04:54:47.078Z,53.9661
2023-04-11T04:55:48.736Z,53.8148
2023-04-11T04:56:50.329Z,53.7612
2023-04-11T04:57:52.051Z,53.8592
2023-04-11T04:58:53.575Z,53.7844
2023-04-11T04:59:55.289Z,53.6574
2023-04-11T05:00:56.952Z,53.5992
2023-04-11T05:01:58.639Z,53.3963
2023-04-11T05:03:00.398Z,53.2866
2023-04-11T05:04:02.489Z,53.4451
2023-04-11T05:05:03.623Z,53.7167
2023-04-11T05:06:05.257Z,53.8778
2023-04-11T05:07:06.873Z,53.9723
2023-04-11T05:08:08.506Z,54.0622
2023-04-11T05:09:10.153Z,54.1463
2023-04-11T05:10:11.832Z,54.1217
2023-04-11T05:11:13.798Z,54.0821
2023-04-11T05:12:15.064Z,53.9663
2023-04-11T05:13:16.704Z,53.9748
2023-04-11T05:14:18.388Z,54.1706
2023-04-11T05:15:20.416Z,54.6658
2023-04-11T05:16:21.817Z,55.1149
2023-04-11T05:17:25.182Z,55.3111
2023-04-11T05:18:25.046Z,55.2025
2023-04-11T05:19:26.681Z,55.4257
2023-04-11T05:20:29.250Z,55.6677
2023-04-11T05:21:30.835Z,56.2755
2023-04-11T05:22:31.625Z,56.9267
2023-04-11T05:23:33.372Z,57.0483
2023-04-11T05:24:34.987Z,56.8210
2023-04-11T05:25:36.754Z,56.6966
2023-04-11T05:26:38.966Z,56.9694
2023-04-11T05:27:39.994Z,57.2281
2023-04-11T05:28:41.782Z,57.6918
2023-04-11T05:29:43.345Z,57.8989
2023-04-11T05:30:44.968Z,57.6326
2023-04-11T05:31:46.924Z,57.5089
2023-04-11T05:32:48.345Z,57.7164
2023-04-11T05:33:51.017Z,58.1032
2023-04-11T05:34:51.635Z,58.5668
2023-04-11T05:35:53.324Z,58.5705
2023-04-11T05:36:54.875Z,58.2332
2023-04-11T05:37:56.742Z,58.1052
2023-04-11T05:38:58.260Z,58.4065
2023-04-11T05:39:59.820Z,58.6859
2023-04-11T05:41:01.453Z,58.9929
2023-04-11T05:42:03.151Z,59.0718
2023-04-11T05:43:04.999Z,58.7399
2023-04-11T05:44:06.390Z,58.5540
2023-04-11T05:45:08.089Z,58.8949
2023-04-11T05:46:09.740Z,59.0094
2023-04-11T05:47:11.595Z,59.4154
2023-04-11T05:48:14.227Z,59.5170
2023-04-11T05:49:14.788Z,59.0982
2023-04-11T05:50:16.483Z,58.9462
2023-04-11T05:51:18.194Z,59.0933
2023-04-11T05:52:19.930Z,59.2502
2023-04-11T05:53:21.376Z,59.7747
2023-04-11T05:54:23.044Z,59.6912
2023-04-11T05:55:24.719Z,59.3831
2023-04-11T05:56:26.352Z,59.2670
2023-04-11T05:57:28.337Z,59.4727
2023-04-11T05:58:29.673Z,59.6966
2023-04-11T05:59:31.364Z,60.0194
2023-04-11T06:00:32.958Z,59.7262
2023-04-11T06:01:34.520Z,59.4863
2023-04-11T06:02:36.295Z,59.4243
2023-04-11T06:03:37.912Z,59.6130
2023-04-11T06:04:40.117Z,59.9234
2023-04-11T06:05:41.133Z,60.2355
2023-04-11T06:06:42.752Z,59.8008
2023-04-11T06:07:44.443Z,59.5047
2023-04-11T06:08:46.159Z,59.5541
2023-04-11T06:09:47.834Z,59.7481
2023-04-11T06:10:49.502Z,60.0240
2023-04-11T06:11:51.124Z,60.3813
2023-04-11T06:12:52.780Z,59.9352
2023-04-11T06:13:54.545Z,59.6707
2023-04-11T06:14:56.019Z,59.6467
2023-04-11T06:15:57.873Z,59.7919
2023-04-11T06:16:59.391Z,60.2232
2023-04-11T06:18:01.196Z,60.3417
2023-04-11T06:19:02.649Z,59.8976
2023-04-11T06:20:05.919Z,59.7798
2023-04-11T06:21:06.125Z,59.9986
2023-04-11T06:22:07.758Z,60.2804
2023-04-11T06:23:09.968Z,60.5127
2023-04-11T06:24:10.915Z,60.3749
2023-04-11T06:25:12.602Z,59.9885
2023-04-11T06:26:14.234Z,59.8431
2023-04-11T06:27:16.844Z,60.0847
2023-04-11T06:28:17.642Z,60.2688
2023-04-11T06:29:19.945Z,60.4676
2023-04-11T06:30:21.051Z,60.3152
2023-04-11T06:31:23.569Z,60.0770
2023-04-11T06:32:24.633Z,60.1153
2023-04-11T06:33:25.755Z,60.4045
2023-04-11T06:34:27.677Z,60.6786
2023-04-11T06:35:29.166Z,60.8428
2023-04-11T06:36:30.787Z,60.3381
2023-04-11T06:37:32.512Z,60.1390
2023-04-11T06:38:34.586Z,60.3722
2023-04-11T06:39:35.825Z,60.5741
2023-04-11T06:40:37.452Z,60.8644
2023-04-11T06:41:39.026Z,60.6337
2023-04-11T06:42:41.050Z,60.2621
2023-04-11T06:43:42.539Z,60.1746
2023-04-11T06:44:44.373Z,60.4429
2023-04-11T06:45:45.652Z,60.7450
2023-04-11T06:46:47.488Z,60.9262
2023-04-11T06:47:49.075Z,60.4881
2023-04-11T06:48:50.634Z,60.2847
2023-04-11T06:49:52.240Z,60.3460
2023-04-11T06:50:55.046Z,60.6549
2023-04-11T06:51:55.548Z,60.9194
2023-04-11T06:52:57.299Z,60.9906
2023-04-11T06:53:58.888Z,60.4885
2023-04-11T06:55:00.564Z,60.1972
2023-04-11T06:56:02.164Z,60.2730
2023-04-11T06:57:03.881Z,60.5043
2023-04-11T06:58:05.355Z,60.7866
2023-04-11T06:59:07.301Z,60.7936
2023-04-11T07:00:08.727Z,60.5712
2023-04-11T07:01:10.373Z,60.3865
2023-04-11T07:02:12.112Z,60.4567
2023-04-11T07:03:13.797Z,60.8019
2023-04-11T07:04:15.516Z,61.2088
2023-04-11T07:05:16.981Z,61.0231
2023-04-11T07:06:18.696Z,60.4658
2023-04-11T07:07:20.318Z,60.1807
2023-04-11T07:08:21.894Z,60.2986
2023-04-11T07:09:23.592Z,60.4931
2023-04-11T07:10:25.258Z,60.6162
2023-04-11T07:11:26.950Z,60.4909
2023-04-11T07:12:28.458Z,60.3567
2023-04-11T07:13:30.904Z,60.1047
2023-04-11T07:14:31.904Z,60.1458
2023-04-11T07:15:33.463Z,60.4449
2023-04-11T07:16:35.170Z,60.7586
2023-04-11T07:17:36.967Z,60.7519
2023-04-11T07:18:38.400Z,60.2747
2023-04-11T07:19:40.103Z,59.9764
2023-04-11T07:20:41.725Z,59.9916
2023-04-11T07:21:43.405Z,60.2921
2023-04-11T07:22:45.032Z,60.6785
2023-04-11T07:23:46.661Z,60.5892
2023-04-11T07:24:48.340Z,60.1082
2023-04-11T07:25:49.953Z,59.8841
2023-04-11T07:26:51.798Z,59.9460
2023-04-11T07:27:53.334Z,60.1533
2023-04-11T07:28:54.972Z,60.4317
2023-04-11T07:29:56.830Z,60.3944
2023-04-11T07:30:58.244Z,60.1348
2023-04-11T07:31:59.863Z,59.9145
2023-04-11T07:33:01.505Z,59.9819
2023-04-11T07:34:03.135Z,60.1781
2023-04-11T07:35:05.050Z,60.3423
2023-04-11T07:36:06.499Z,60.3705
2023-04-11T07:37:08.081Z,60.0878
2023-04-11T07:38:09.790Z,59.7958
2023-04-11T07:39:11.460Z,59.6911
2023-04-11T07:40:13.522Z,59.8763
2023-04-11T07:41:14.694Z,60.1801
2023-04-11T07:42:16.311Z,60.3486
2023-04-11T07:43:18.116Z,60.5073
2023-04-11T07:44:19.825Z,60.5269
2023-04-11T07:45:21.365Z,60.3325
2023-04-11T07:46:22.949Z,60.3270
2023-04-11T07:47:24.603Z,60.2876
2023-04-11T07:48:26.344Z,60.4126
2023-04-11T07:49:27.948Z,60.5084
2023-04-11T07:50:29.768Z,60.1643
2023-04-11T07:51:31.154Z,59.8702
2023-04-11T07:52:32.911Z,59.8223
2023-04-11T07:53:34.504Z,60.0587
2023-04-11T07:54:36.101Z,60.2837
2023-04-11T07:55:37.837Z,60.2874
2023-04-11T07:56:40.405Z,59.8905
2023-04-11T07:57:41.087Z,59.5532
2023-04-11T07:58:42.772Z,59.3806
2023-04-11T07:59:44.572Z,59.5589
2023-04-11T08:00:45.991Z,59.7387
2023-04-11T08:01:47.775Z,59.8923
2023-04-11T08:02:50.356Z,59.9839
2023-04-11T08:03:51.076Z,59.7633
2023-04-11T08:04:52.754Z,59.6437
2023-04-11T08:05:54.239Z,59.7012
2023-04-11T08:06:55.896Z,59.9017
2023-04-11T08:07:57.568Z,60.0065
2023-04-11T08:08:59.285Z,59.9533
2023-04-11T08:10:00.848Z,59.6504
2023-04-11T08:11:02.506Z,59.3286
2023-04-11T08:12:04.200Z,59.2059
2023-04-11T08:13:05.856Z,59.4553
2023-04-11T08:14:07.416Z,59.5947
2023-04-11T08:15:09.167Z,59.4534
2023-04-11T08:16:10.837Z,58.9169
2023-04-11T08:17:25.143Z,58.5482
2023-04-11T08:18:14.068Z,58.4437
2023-04-11T08:19:15.698Z,58.5737
2023-04-11T08:20:17.416Z,58.7663
2023-04-11T08:21:19.045Z,58.7407
2023-04-11T08:22:21.022Z,58.4668
2023-04-11T08:23:22.384Z,58.0563
2023-04-11T08:24:23.962Z,57.9441
2023-04-11T08:25:25.630Z,58.0022
2023-04-11T08:26:27.957Z,58.0773
2023-04-11T08:27:28.912Z,58.0349
2023-04-11T08:28:30.714Z,57.7640
2023-04-11T08:29:32.436Z,57.5766
2023-04-11T08:30:33.868Z,57.7187
2023-04-11T08:31:35.456Z,58.0629
2023-04-11T08:32:37.420Z,58.3308
2023-04-11T08:33:38.713Z,58.3288
2023-04-11T08:34:40.389Z,58.0907
2023-04-11T08:35:42.112Z,58.0179
2023-04-11T08:36:43.712Z,58.1395
2023-04-11T08:37:45.938Z,58.3637
2023-04-11T08:38:47.023Z,58.6962
2023-04-11T08:39:48.709Z,58.6354
2023-04-11T08:40:50.532Z,58.3346
2023-04-11T08:41:52.201Z,58.1967
2023-04-11T08:42:53.633Z,58.1835
2023-04-11T08:43:55.572Z,58.5216
2023-04-11T08:44:56.925Z,58.6947
2023-04-11T08:45:58.569Z,58.5491
2023-04-11T08:47:00.283Z,58.5664
2023-04-11T08:48:01.907Z,58.3135
2023-04-11T08:49:03.703Z,58.0969
2023-04-11T08:50:05.091Z,58.1455
2023-04-11T08:51:06.807Z,58.1996
2023-04-11T08:52:08.807Z,58.2273
2023-04-11T08:53:10.055Z,57.8783
2023-04-11T08:54:11.726Z,57.5089
2023-04-11T08:55:13.413Z,57.3666
2023-04-11T08:56:15.023Z,57.5539
2023-04-11T08:57:16.722Z,57.8476
2023-04-11T08:58:18.414Z,57.9470
2023-04-11T08:59:20.052Z,57.5508
2023-04-11T09:00:21.613Z,57.2823
2023-04-11T09:01:23.355Z,57.0348
2023-04-11T09:02:25.109Z,57.1484
2023-04-11T09:03:26.605Z,57.4335
2023-04-11T09:04:29.073Z,57.1755
2023-04-11T09:05:30.202Z,56.4867
2023-04-11T09:06:31.598Z,56.1045
2023-04-11T09:07:33.216Z,56.0684
2023-04-11T09:08:34.830Z,56.4298
2023-04-11T09:09:36.471Z,56.6693
2023-04-11T09:10:38.089Z,56.3081
2023-04-11T09:11:39.764Z,55.6134
2023-04-11T09:12:41.408Z,55.2880
2023-04-11T09:13:43.817Z,55.3420
2023-04-11T09:14:44.694Z,55.6675
2023-04-11T09:15:46.451Z,55.7975
2023-04-11T09:16:47.898Z,55.0808
2023-04-11T09:17:49.546Z,54.3144
2023-04-11T09:18:51.209Z,53.9814
2023-04-11T09:19:52.872Z,54.0680
2023-04-11T09:20:54.584Z,54.3259
2023-04-11T09:21:56.205Z,54.4262
2023-04-11T09:22:57.821Z,53.8409
2023-04-11T09:23:59.427Z,53.2150
2023-04-11T09:25:01.146Z,53.0173
2023-04-11T09:26:02.840Z,53.1049
2023-04-11T09:27:04.454Z,53.2610
2023-04-11T09:28:06.137Z,53.2657
2023-04-11T09:29:07.746Z,52.7519
2023-04-11T09:30:09.397Z,52.2788
2023-04-11T09:31:11.423Z,52.3163
2023-04-11T09:32:13.403Z,52.5269
2023-04-11T09:33:14.359Z,52.7332
2023-04-11T09:34:16.414Z,52.4918
2023-04-11T09:35:18.236Z,51.9144
2023-04-11T09:36:19.330Z,51.7219
2023-04-11T09:37:21.050Z,51.8225
2023-04-11T09:38:22.825Z,52.1969
2023-04-11T09:39:24.296Z,52.3317
2023-04-11T09:40:25.905Z,52.1095
2023-04-11T09:41:27.813Z,51.6575
2023-04-11T09:42:29.311Z,51.6310
2023-04-11T09:43:30.922Z,51.7930
2023-04-11T09:44:32.701Z,52.0162
2023-04-11T09:45:44.212Z,52.1459
2023-04-11T09:46:35.809Z,51.8421
2023-04-11T09:47:37.498Z,51.2964
2023-04-11T09:48:46.502Z,50.9672
2023-04-11T09:49:40.837Z,51.1814
2023-04-11T09:50:42.448Z,51.5235
2023-04-11T09:51:44.025Z,51.7010
2023-04-11T09:52:45.689Z,51.2205
2023-04-11T09:53:47.397Z,50.6323
2023-04-11T09:54:48.980Z,50.3446
2023-04-11T09:55:50.662Z,50.4748
2023-04-11T09:56:52.348Z,50.7539
2023-04-11T09:57:54.918Z,50.8518
2023-04-11T09:58:55.872Z,50.3372
2023-04-11T09:59:58.789Z,49.8043
2023-04-11T10:00:58.814Z,49.8950
2023-04-11T10:02:00.625Z,49.9993
2023-04-11T10:03:02.613Z,50.0204
2023-04-11T10:04:04.589Z,49.9744
2023-04-11T10:05:05.609Z,49.3939
2023-04-11T10:06:07.215Z,48.8414
2023-04-11T10:07:08.842Z,48.8374
2023-04-11T10:08:10.515Z,48.9694
2023-04-11T10:09:12.182Z,49.1214
2023-04-11T10:10:13.783Z,49.0153
2023-04-11T10:11:15.438Z,48.5556
2023-04-11T10:12:17.149Z,48.1334
2023-04-11T10:13:18.840Z,48.2262
2023-04-11T10:14:20.532Z,48.3485
2023-04-11T10:15:21.981Z,48.4094
2023-04-11T10:16:23.821Z,48.3519
2023-04-11T10:17:25.411Z,47.7902
2023-04-11T10:18:27.004Z,47.3393
2023-04-11T10:19:28.686Z,47.6287
2023-04-11T10:20:30.319Z,47.6570
2023-04-11T10:21:32.026Z,47.7973
2023-04-11T10:22:33.576Z,47.6701
2023-04-11T10:23:35.272Z,47.1620
2023-04-11T10:24:36.972Z,46.8223
2023-04-11T10:25:38.559Z,46.9877
2023-04-11T10:26:40.173Z,47.2662
2023-04-11T10:27:41.841Z,47.3650
2023-04-11T10:28:43.726Z,47.1876
2023-04-11T10:29:45.282Z,46.7838
2023-04-11T10:30:46.866Z,46.5037
2023-04-11T10:31:48.634Z,46.7884
2023-04-11T10:32:50.191Z,47.0865
2023-04-11T10:33:51.989Z,47.0954
2023-04-11T10:34:53.556Z,46.8752
2023-04-11T10:35:55.171Z,46.4406
2023-04-11T10:36:56.764Z,46.2565
2023-04-11T10:37:58.990Z,46.5620
2023-04-11T10:39:00.090Z,46.8291
2023-04-11T10:40:01.816Z,46.9529
2023-04-11T10:41:03.470Z,46.6077
2023-04-11T10:42:05.032Z,46.1171
2023-04-11T10:43:07.499Z,46.1993
2023-04-11T10:44:08.362Z,46.3317
2023-04-11T10:45:10.144Z,46.5949
2023-04-11T10:46:11.590Z,46.7556
2023-04-11T10:47:13.593Z,46.4674
2023-04-11T10:48:14.911Z,46.1504
2023-04-11T10:49:16.578Z,46.2711
2023-04-11T10:50:18.655Z,46.4010
2023-04-11T10:51:19.891Z,46.6988
2023-04-11T10:52:21.570Z,46.9020
2023-04-11T10:53:23.217Z,46.5959
2023-04-11T10:54:24.883Z,46.1719
2023-04-11T10:55:27.086Z,46.1659
2023-04-11T10:56:28.184Z,46.4327
2023-04-11T10:57:29.841Z,46.7648
2023-04-11T10:58:31.475Z,46.9020
2023-04-11T10:59:33.097Z,46.5053
2023-04-11T11:00:35.198Z,45.9880
2023-04-11T11:01:42.966Z,46.0420
2023-04-11T11:02:38.425Z,46.2667
2023-04-11T11:03:39.926Z,46.6772
2023-04-11T11:04:41.417Z,46.7460
2023-04-11T11:05:42.997Z,46.3030
2023-04-11T11:06:51.103Z,45.8651
2023-04-11T11:07:46.251Z,45.7480
2023-04-11T11:08:48.397Z,46.0333
2023-04-11T11:09:49.514Z,46.3747
2023-04-11T11:10:51.274Z,46.2975
2023-04-11T11:11:52.818Z,45.7520
2023-04-11T11:12:54.549Z,45.2417
2023-04-11T11:13:56.490Z,45.3409
2023-04-11T11:14:57.814Z,45.6176
2023-04-11T11:15:59.418Z,45.9054
2023-04-11T11:17:01.222Z,46.0360
2023-04-11T11:18:02.756Z,45.5012
2023-04-11T11:19:04.872Z,45.0700
2023-04-11T11:20:06.039Z,45.1093
2023-04-11T11:21:14.170Z,45.4584
2023-04-11T11:22:09.307Z,45.6553
2023-04-11T11:23:14.125Z,45.5855
2023-04-11T11:24:17.585Z,45.2254
2023-04-11T11:25:19.189Z,44.9881
2023-04-11T11:26:20.806Z,45.2506
2023-04-11T11:27:22.413Z,45.5739
2023-04-11T11:28:24.169Z,45.9435
2023-04-11T11:29:25.798Z,45.9021
2023-04-11T11:30:27.357Z,45.3774
2023-04-11T11:31:30.033Z,45.1532
2023-04-11T11:32:30.641Z,45.3207
2023-04-11T11:33:32.396Z,45.6767
2023-04-11T11:34:34.056Z,45.7956
2023-04-11T11:35:35.688Z,45.5933
2023-04-11T11:36:37.249Z,45.1808
2023-04-11T11:37:38.896Z,44.8681
2023-04-11T11:38:41.390Z,44.9838
2023-04-11T11:39:42.238Z,45.2161
2023-04-11T11:40:43.807Z,45.5056
2023-04-11T11:41:46.560Z,45.4367
2023-04-11T11:42:47.140Z,44.9659
2023-04-11T11:43:48.736Z,44.7835
2023-04-11T11:44:50.550Z,44.9536
2023-04-11T11:45:52.138Z,45.3632
2023-04-11T11:46:53.742Z,45.6484
2023-04-11T11:47:55.886Z,45.3913
2023-04-11T11:48:57.288Z,44.9292
2023-04-11T11:49:58.668Z,44.6222
2023-04-11T11:51:01.008Z,44.7633
2023-04-11T11:52:02.099Z,45.2278
2023-04-11T11:53:03.702Z,45.3348
2023-04-11T11:54:05.351Z,45.0348
2023-04-11T11:55:10.860Z,44.4047
2023-04-11T11:56:08.713Z,44.0090
2023-04-11T11:57:10.680Z,44.1616
2023-04-11T11:58:12.153Z,44.2855
2023-04-11T11:59:13.672Z,44.4696
2023-04-11T12:00:15.290Z,44.3548
2023-04-11T12:01:17.196Z,44.0963
2023-04-11T12:02:18.691Z,44.2078
2023-04-11T12:03:20.608Z,44.4987
2023-04-11T12:04:22.189Z,44.8119
2023-04-11T12:05:23.864Z,44.8631
2023-04-11T12:06:25.419Z,44.6787
2023-04-11T12:07:27.010Z,44.6268
2023-04-11T12:08:28.553Z,44.6101
2023-04-11T12:09:30.208Z,44.5505
2023-04-11T12:10:31.894Z,44.5719
2023-04-11T12:11:34.013Z,44.7571
2023-04-11T12:12:35.180Z,44.6779
2023-04-11T12:13:36.856Z,44.6773
2023-04-11T12:14:38.417Z,44.5673
2023-04-11T12:15:40.100Z,44.6889
2023-04-11T12:16:41.798Z,44.8561
2023-04-11T12:17:43.435Z,44.9966
2023-04-11T12:18:45.131Z,44.8621
2023-04-11T12:19:46.776Z,45.0117
2023-04-11T12:20:48.364Z,44.8725
2023-04-11T12:21:50.030Z,44.9931
2023-04-11T12:22:53.674Z,45.0348
2023-04-11T12:23:53.540Z,45.2569
2023-04-11T12:24:54.840Z,45.2357
2023-04-11T12:25:56.668Z,45.3198